Time;durP1;ratioP1;P1;durP2;ratioP2;P2;SDS_P1;SDS_P2;PMS_P1;PMS_P2;Temp;Humidity;BMP_temperature;BMP_pressure;BME280_temperature;BME280_humidity;BME280_pressure;Samples;Min_cycle;Max_cycle;Signal;HPM_P1;HPM_P2
2021/04/06 00:02:27;;;;;;;10.33;1.73;;;2.10;99.90;;;;;;5075529;28;20250;-78
2021/04/06 00:04:57;;;;;;;14.17;3.10;;;2.00;99.90;;;;;;5076386;28;20247;-78
2021/04/06 00:07:24;;;;;;;20.13;2.67;;;2.00;99.90;;;;;;5077040;28;20231;-78
2021/04/06 00:09:53;;;;;;;9.23;2.00;;;2.00;99.90;;;;;;5076005;28;20283;-77
2021/04/06 00:12:21;;;;;;;11.53;2.43;;;2.00;99.90;;;;;;5076470;28;20257;-78
2021/04/06 00:14:50;;;;;;;12.37;2.67;;;1.90;99.90;;;;;;5076185;28;20218;-77
2021/04/06 00:17:19;;;;;;;19.03;2.90;;;1.90;99.90;;;;;;5075575;28;20299;-78
2021/04/06 00:19:47;;;;;;;13.90;3.03;;;1.90;99.90;;;;;;5076363;28;20198;-78
2021/04/06 00:22:16;;;;;;;9.20;2.17;;;2.00;99.90;;;;;;5076064;28;20692;-78
2021/04/06 00:24:46;;;;;;;12.40;2.40;;;2.00;99.90;;;;;;5075917;28;20758;-78
2021/04/06 00:27:16;;;;;;;8.67;2.20;;;2.00;99.90;;;;;;5075967;28;20572;-77
2021/04/06 00:29:46;;;;;;;12.87;2.03;;;2.00;99.90;;;;;;5075837;28;20567;-78
2021/04/06 00:32:16;;;;;;;13.50;2.40;;;2.10;99.90;;;;;;5076043;28;20200;-78
2021/04/06 00:34:43;;;;;;;8.67;1.70;;;2.10;99.90;;;;;;5075027;28;20625;-78
2021/04/06 00:37:15;;;;;;;12.63;2.43;;;2.20;99.90;;;;;;5076076;28;20196;-78
2021/04/06 00:39:43;;;;;;;7.77;1.97;;;2.30;99.90;;;;;;5075826;28;20522;-78
2021/04/06 00:42:13;;;;;;;13.47;2.23;;;2.30;99.90;;;;;;5075846;28;20196;-78
2021/04/06 00:44:43;;;;;;;8.30;1.63;;;2.30;99.90;;;;;;5075854;28;20238;-78
2021/04/06 00:47:12;;;;;;;6.97;1.73;;;2.40;99.90;;;;;;5075866;28;20283;-78
2021/04/06 00:49:40;;;;;;;8.50;1.67;;;2.30;99.90;;;;;;5075485;28;20207;-78
2021/04/06 00:52:07;;;;;;;7.17;1.27;;;2.30;99.90;;;;;;5074958;28;20202;-78
2021/04/06 00:54:35;;;;;;;8.10;1.40;;;2.30;99.90;;;;;;5074544;28;20189;-78
2021/04/06 00:57:06;;;;;;;11.90;1.57;;;2.30;99.90;;;;;;5074583;28;20285;-78
2021/04/06 00:59:33;;;;;;;12.60;2.00;;;2.30;99.90;;;;;;5055536;28;20205;-77
2021/04/06 01:02:02;;;;;;;9.80;2.17;;;2.30;99.90;;;;;;5070081;28;20211;-78
2021/04/06 01:04:33;;;;;;;17.40;2.20;;;2.30;99.90;;;;;;5074477;28;20236;-77
2021/04/06 01:07:03;;;;;;;10.23;1.90;;;2.30;99.90;;;;;;5073885;28;20200;-78
2021/04/06 01:09:42;;;;;;;12.40;2.20;;;2.30;99.90;;;;;;5074887;28;20192;-78
2021/04/06 01:12:10;;;;;;;9.40;1.87;;;2.20;99.90;;;;;;5075359;28;20204;-78
2021/04/06 01:14:39;;;;;;;11.70;2.47;;;2.20;99.90;;;;;;5073105;28;20668;-78
2021/04/06 01:17:07;;;;;;;13.13;2.07;;;2.10;99.90;;;;;;5074605;28;20228;-78
2021/04/06 01:19:35;;;;;;;12.17;1.70;;;2.10;99.90;;;;;;5073821;28;20204;-78
2021/04/06 01:22:05;;;;;;;16.87;2.20;;;2.00;99.90;;;;;;5074984;28;20221;-77
2021/04/06 01:24:33;;;;;;;18.10;2.00;;;2.00;99.90;;;;;;5073162;28;20281;-78
2021/04/06 01:27:01;;;;;;;16.03;2.20;;;2.10;99.90;;;;;;5074776;28;20196;-78
2021/04/06 01:29:28;;;;;;;16.20;2.37;;;2.10;99.90;;;;;;5074360;28;20206;-78
2021/04/06 01:31:56;;;;;;;15.27;2.23;;;2.10;99.90;;;;;;5074615;28;20346;-78
2021/04/06 01:34:23;;;;;;;11.37;2.50;;;2.10;99.90;;;;;;5074266;28;20202;-78
2021/04/06 01:36:53;;;;;;;19.07;2.83;;;2.10;99.90;;;;;;5071253;28;20291;-78
2021/04/06 01:39:21;;;;;;;15.70;2.77;;;2.20;99.90;;;;;;5054070;28;20196;-78
2021/04/06 01:41:54;;;;;;;13.50;3.13;;;2.20;99.90;;;;;;5054019;28;20202;-78
2021/04/06 01:44:21;;;;;;;11.80;2.93;;;2.10;99.90;;;;;;5054903;28;20260;-78
2021/04/06 01:46:48;;;;;;;15.20;3.53;;;2.10;99.90;;;;;;5054395;28;20200;-78
2021/04/06 01:49:16;;;;;;;20.07;2.80;;;2.20;99.90;;;;;;5054877;28;20208;-77
2021/04/06 01:51:43;;;;;;;21.97;3.33;;;2.20;99.90;;;;;;5054359;28;20671;-78
2021/04/06 01:54:12;;;;;;;23.70;3.73;;;2.20;99.90;;;;;;5054742;28;20292;-77
2021/04/06 01:56:44;;;;;;;23.00;3.50;;;2.20;99.90;;;;;;5053386;28;20665;-78
2021/04/06 01:59:15;;;;;;;17.70;3.13;;;2.20;99.90;;;;;;5054601;28;20574;-78
2021/04/06 02:01:42;;;;;;;15.30;3.60;;;2.10;99.90;;;;;;5054557;28;20205;-78
2021/04/06 02:04:10;;;;;;;17.10;3.30;;;2.10;99.90;;;;;;5054800;28;20221;-77
2021/04/06 02:06:39;;;;;;;20.90;3.70;;;2.20;99.90;;;;;;5054106;28;20193;-78
2021/04/06 02:09:10;;;;;;;19.90;4.30;;;2.20;99.90;;;;;;5054594;28;20208;-77
2021/04/06 02:11:37;;;;;;;23.03;3.97;;;2.20;99.90;;;;;;5053393;28;20292;-77
2021/04/06 02:14:06;;;;;;;20.87;3.13;;;2.10;99.90;;;;;;5057469;28;20649;-77
2021/04/06 02:16:48;;;;;;;16.07;3.13;;;2.20;99.90;;;;;;5073632;28;20203;-77
2021/04/06 02:19:22;;;;;;;24.60;3.50;;;2.10;99.90;;;;;;5074125;28;20198;-78
2021/04/06 02:21:49;;;;;;;18.97;2.67;;;2.10;99.90;;;;;;5073513;28;20286;-78
2021/04/06 02:24:31;;;;;;;12.20;2.37;;;2.00;99.90;;;;;;5073191;28;20208;-77
2021/04/06 02:27:08;;;;;;;20.13;3.47;;;2.00;99.90;;;;;;5074058;28;20196;-78
2021/04/06 02:29:40;;;;;;;15.10;2.70;;;2.10;99.90;;;;;;5073743;28;20203;-78
2021/04/06 02:32:10;;;;;;;15.27;2.57;;;2.20;99.90;;;;;;5072817;28;20303;-78
2021/04/06 02:34:42;;;;;;;7.80;1.90;;;2.20;99.90;;;;;;5072988;28;20657;-78
2021/04/06 02:37:16;;;;;;;18.63;2.67;;;2.20;99.90;;;;;;5072713;28;20284;-78
2021/04/06 02:39:43;;;;;;;19.70;2.80;;;2.20;99.90;;;;;;5072976;28;20199;-78
2021/04/06 02:42:25;;;;;;;16.10;2.63;;;2.20;99.90;;;;;;5073772;28;20250;-78
2021/04/06 02:44:56;;;;;;;18.27;2.50;;;2.20;99.90;;;;;;5072635;28;20224;-78
2021/04/06 02:47:26;;;;;;;13.90;2.20;;;2.20;99.90;;;;;;5073352;28;20207;-78
2021/04/06 02:49:53;;;;;;;18.47;2.70;;;2.30;99.90;;;;;;5073571;28;20298;-78
2021/04/06 02:52:20;;;;;;;16.63;2.50;;;2.40;99.90;;;;;;5072789;28;20564;-77
2021/04/06 02:54:46;;;;;;;20.30;3.03;;;2.40;99.90;;;;;;5072999;28;20294;-78
2021/04/06 02:57:23;;;;;;;21.93;2.97;;;2.50;99.90;;;;;;5074190;28;20204;-78
2021/04/06 02:59:50;;;;;;;11.07;2.53;;;2.50;99.90;;;;;;5073330;28;20291;-78
2021/04/06 03:02:17;;;;;;;13.17;2.90;;;2.50;99.90;;;;;;5073593;28;20279;-78
2021/04/06 03:04:45;;;;;;;20.83;2.70;;;2.50;99.90;;;;;;5073073;28;20220;-78
2021/04/06 03:07:23;;;;;;;23.03;2.77;;;2.40;99.90;;;;;;5072838;28;20193;-78
2021/04/06 03:09:54;;;;;;;29.90;3.00;;;2.50;99.90;;;;;;5071592;28;20601;-78
2021/04/06 03:12:21;;;;;;;18.50;2.40;;;2.50;99.90;;;;;;5073367;28;20207;-78
2021/04/06 03:14:49;;;;;;;23.13;3.23;;;2.50;99.90;;;;;;5071888;28;20289;-78
2021/04/06 03:17:16;;;;;;;24.13;3.10;;;2.50;99.90;;;;;;5072977;28;20546;-78
2021/04/06 03:19:44;;;;;;;28.07;3.30;;;2.40;99.90;;;;;;5075455;28;20197;-78
2021/04/06 03:22:12;;;;;;;21.03;2.67;;;2.40;99.90;;;;;;5077206;28;20316;-79
2021/04/06 03:24:41;;;;;;;12.40;2.53;;;2.30;99.90;;;;;;5075637;28;20220;-78
2021/04/06 03:27:08;;;;;;;14.80;2.60;;;2.30;99.90;;;;;;5077434;28;20691;-78
2021/04/06 03:29:35;;;;;;;15.33;2.70;;;2.20;99.90;;;;;;5077173;28;20196;-78
2021/04/06 03:32:01;;;;;;;16.93;2.80;;;2.20;99.90;;;;;;5076636;28;20204;-78
2021/04/06 03:34:34;;;;;;;19.90;2.00;;;2.20;99.90;;;;;;5075473;28;20188;-78
2021/04/06 03:37:03;;;;;;;12.63;2.00;;;2.30;99.90;;;;;;5076325;28;20256;-78
2021/04/06 03:39:32;;;;;;;24.23;2.53;;;2.20;99.90;;;;;;5075147;28;20668;-78
2021/04/06 03:41:59;;;;;;;13.40;2.00;;;2.20;99.90;;;;;;5075885;28;20238;-78
2021/04/06 03:44:28;;;;;;;16.73;2.00;;;2.20;99.90;;;;;;5075885;28;20689;-78
2021/04/06 03:47:00;;;;;;;11.00;1.73;;;2.10;99.90;;;;;;5075672;28;20676;-77
2021/04/06 03:49:28;;;;;;;11.73;1.80;;;2.00;99.90;;;;;;5075416;28;20207;-77
2021/04/06 03:51:58;;;;;;;14.73;2.20;;;2.00;99.90;;;;;;5056338;28;20746;-77
2021/04/06 03:54:50;;;;;;;20.63;2.23;;;1.90;99.90;;;;;;5072246;28;20204;-77
2021/04/06 03:57:35;;;;;;;23.20;2.50;;;2.00;99.90;;;;;;5041980;28;20258;-77
2021/04/06 04:00:04;;;;;;;18.03;1.93;;;2.10;99.90;;;;;;5068283;28;20196;-77
2021/04/06 04:02:31;;;;;;;17.37;2.83;;;2.10;99.90;;;;;;5075678;28;20200;-78
2021/04/06 04:04:57;;;;;;;21.33;3.80;;;2.10;99.90;;;;;;5075504;28;20228;-78
2021/04/06 04:07:23;;;;;;;17.53;4.07;;;1.90;99.90;;;;;;5074726;28;20656;-78
2021/04/06 04:09:51;;;;;;;19.30;4.60;;;1.90;99.90;;;;;;5074471;28;20283;-78
2021/04/06 04:12:17;;;;;;;25.43;4.50;;;1.80;99.90;;;;;;5074984;28;20200;-78
2021/04/06 04:14:43;;;;;;;21.43;4.23;;;1.70;99.90;;;;;;5074527;28;20709;-78
2021/04/06 04:17:10;;;;;;;10.13;3.33;;;1.80;99.90;;;;;;5075129;28;20196;-78
2021/04/06 04:19:36;;;;;;;12.40;3.00;;;1.80;99.90;;;;;;5074894;28;20196;-78
2021/04/06 04:22:03;;;;;;;15.67;2.80;;;1.70;99.90;;;;;;5074915;28;20583;-78
2021/04/06 04:24:29;;;;;;;9.17;2.10;;;1.60;99.90;;;;;;5074506;28;20218;-78
2021/04/06 04:26:57;;;;;;;14.00;1.93;;;1.60;99.90;;;;;;5074997;28;20197;-78
2021/04/06 04:29:23;;;;;;;19.17;2.63;;;1.60;99.90;;;;;;5074164;28;20193;-78
2021/04/06 04:31:50;;;;;;;7.27;1.50;;;1.70;99.90;;;;;;5074675;28;20691;-79
2021/04/06 04:34:17;;;;;;;16.30;2.20;;;1.80;99.90;;;;;;5074706;28;20188;-79
2021/04/06 04:36:43;;;;;;;14.47;1.90;;;1.80;99.90;;;;;;5074008;28;20200;-79
2021/04/06 04:39:10;;;;;;;15.93;2.00;;;1.80;99.90;;;;;;5074404;28;20187;-78
2021/04/06 04:41:36;;;;;;;8.00;1.40;;;1.80;99.90;;;;;;5074177;28;20668;-79
2021/04/06 04:44:04;;;;;;;10.07;1.73;;;1.90;99.90;;;;;;5069959;28;20291;-79
2021/04/06 04:46:31;;;;;;;12.63;1.97;;;1.90;99.90;;;;;;5069004;28;20221;-79
2021/04/06 04:48:57;;;;;;;13.77;1.30;;;1.90;99.90;;;;;;5071645;28;20288;-79
2021/04/06 04:51:24;;;;;;;13.60;1.90;;;1.90;99.90;;;;;;5058364;28;20199;-78
2021/04/06 04:53:51;;;;;;;13.30;1.80;;;1.90;99.90;;;;;;5073554;28;20196;-79
2021/04/06 04:56:17;;;;;;;14.03;2.43;;;1.90;99.90;;;;;;5074250;28;20203;-78
2021/04/06 04:58:43;;;;;;;11.00;1.60;;;1.80;99.90;;;;;;5074637;28;20226;-79
2021/04/06 05:01:11;;;;;;;7.40;1.27;;;1.80;99.90;;;;;;5073625;28;20673;-78
2021/04/06 05:03:38;;;;;;;16.20;2.23;;;1.70;99.90;;;;;;5074455;28;20207;-78
2021/04/06 05:06:05;;;;;;;9.10;1.77;;;1.70;99.90;;;;;;5073624;28;20307;-78
2021/04/06 05:08:31;;;;;;;12.60;1.40;;;1.80;99.90;;;;;;5073774;28;20191;-78
2021/04/06 05:10:57;;;;;;;12.93;1.77;;;1.70;99.90;;;;;;5073543;28;20534;-78
2021/04/06 05:13:25;;;;;;;7.07;1.40;;;1.70;99.90;;;;;;5073247;28;20222;-79
2021/04/06 05:15:52;;;;;;;9.60;1.23;;;1.60;99.90;;;;;;5073854;28;20204;-78
2021/04/06 05:18:19;;;;;;;5.10;1.10;;;1.60;99.90;;;;;;5073364;28;20559;-78
2021/04/06 05:20:46;;;;;;;12.23;1.63;;;1.70;99.90;;;;;;5073442;28;20197;-78
2021/04/06 05:23:12;;;;;;;5.13;1.30;;;1.70;99.90;;;;;;5073625;28;20287;-78
2021/04/06 05:25:38;;;;;;;14.40;2.00;;;1.70;99.90;;;;;;5073667;28;20219;-78
2021/04/06 05:28:05;;;;;;;9.40;1.37;;;1.70;99.90;;;;;;5073769;28;20197;-78
2021/04/06 05:30:31;;;;;;;5.87;1.30;;;1.70;99.90;;;;;;5073638;28;20202;-78
2021/04/06 05:32:57;;;;;;;16.93;1.90;;;1.70;99.90;;;;;;5073432;28;20209;-78
2021/04/06 05:35:25;;;;;;;10.33;1.60;;;1.70;99.90;;;;;;5073114;28;20227;-78
2021/04/06 05:37:51;;;;;;;4.50;1.13;;;1.80;99.90;;;;;;5073394;28;20616;-78
2021/04/06 05:40:17;;;;;;;6.37;1.40;;;1.70;99.90;;;;;;5073310;28;20214;-78
2021/04/06 05:42:44;;;;;;;10.00;1.57;;;1.70;99.90;;;;;;5072644;28;20192;-78
2021/04/06 05:45:11;;;;;;;11.13;1.60;;;1.70;99.90;;;;;;5068324;28;20245;-78
2021/04/06 05:47:45;;;;;;;8.10;1.60;;;1.70;99.90;;;;;;5073249;28;20207;-77
2021/04/06 05:50:12;;;;;;;8.97;1.27;;;1.80;99.90;;;;;;5072829;28;20665;-77
2021/04/06 05:52:39;;;;;;;8.27;1.73;;;1.80;99.90;;;;;;5073171;28;20195;-77
2021/04/06 05:55:07;;;;;;;11.40;1.80;;;1.80;99.90;;;;;;5072415;28;20199;-77
2021/04/06 05:57:34;;;;;;;6.13;1.27;;;1.90;99.90;;;;;;5073467;28;20196;-77
2021/04/06 06:00:04;;;;;;;9.60;1.33;;;2.10;99.90;;;;;;5072566;28;20195;-78
2021/04/06 06:02:31;;;;;;;7.80;2.27;;;2.20;99.90;;;;;;5069199;28;20200;-78
2021/04/06 06:04:58;;;;;;;9.77;2.17;;;2.20;99.90;;;;;;5052814;28;20588;-78
2021/04/06 06:07:26;;;;;;;10.90;1.83;;;2.30;99.90;;;;;;5071386;28;20206;-77
2021/04/06 06:09:54;;;;;;;7.97;2.20;;;2.40;99.90;;;;;;5072906;28;20657;-77
2021/04/06 06:12:21;;;;;;;14.40;2.53;;;2.70;99.90;;;;;;5062920;28;20200;-77
2021/04/06 06:14:51;;;;;;;9.17;2.30;;;2.70;99.90;;;;;;5062843;28;20197;-77
2021/04/06 06:17:19;;;;;;;7.90;2.40;;;2.60;99.90;;;;;;5073555;28;20231;-77
2021/04/06 06:19:47;;;;;;;7.67;2.00;;;2.60;99.90;;;;;;5072275;28;20199;-76
2021/04/06 06:22:16;;;;;;;8.77;1.30;;;2.60;99.90;;;;;;5075020;28;20196;-80
2021/04/06 06:24:45;;;;;;;10.47;2.00;;;2.50;99.90;;;;;;5061826;28;20312;-80
2021/04/06 06:27:36;;;;;;;9.17;1.87;;;2.50;99.90;;;;;;5052858;28;20297;-80
2021/04/06 06:30:26;;;;;;;8.77;1.23;;;2.40;99.90;;;;;;5071388;28;20200;-81
2021/04/06 06:33:12;;;;;;;10.43;1.90;;;2.40;99.90;;;;;;5069523;28;20200;-80
2021/04/06 06:35:39;;;;;;;7.07;1.40;;;2.60;99.90;;;;;;5072299;28;20206;-81
2021/04/06 06:38:19;;;;;;;7.90;1.03;;;2.70;99.90;;;;;;5072644;28;20654;-80
2021/04/06 06:40:48;;;;;;;6.80;1.20;;;2.60;99.90;;;;;;5072099;28;20704;-80
2021/04/06 06:43:17;;;;;;;6.87;1.03;;;2.70;99.90;;;;;;5067982;28;20211;-80
2021/04/06 06:45:44;;;;;;;4.33;1.20;;;2.60;99.90;;;;;;5079418;28;20215;-82
2021/04/06 06:48:25;;;;;;;4.87;1.10;;;2.50;99.90;;;;;;5059716;28;20246;-80
2021/04/06 06:50:52;;;;;;;15.60;1.47;;;2.50;99.90;;;;;;5073202;28;20188;-81
2021/04/06 06:53:34;;;;;;;5.20;1.30;;;2.50;99.90;;;;;;5059704;28;20219;-80
2021/04/06 06:56:01;;;;;;;5.67;1.57;;;2.60;99.90;;;;;;5074459;28;20528;-82
2021/04/06 06:58:32;;;;;;;9.63;1.50;;;2.70;99.90;;;;;;5056870;28;20197;-82
2021/04/06 07:00:59;;;;;;;12.77;1.70;;;2.70;99.90;;;;;;5075534;28;20738;-82
2021/04/06 07:03:25;;;;;;;9.27;1.80;;;2.80;99.90;;;;;;5076139;28;20204;-82
2021/04/06 07:05:52;;;;;;;6.67;1.60;;;3.00;99.90;;;;;;5075829;28;20216;-80
2021/04/06 07:08:31;;;;;;;11.13;1.40;;;3.20;99.90;;;;;;5076790;28;20200;-81
2021/04/06 07:11:00;;;;;;;10.37;1.50;;;3.10;99.90;;;;;;5073431;28;20189;-80
2021/04/06 07:13:29;;;;;;;10.37;1.53;;;3.00;99.90;;;;;;5073842;28;20195;-80
2021/04/06 07:15:57;;;;;;;3.87;1.20;;;2.60;99.90;;;;;;5069878;28;20224;-81
2021/04/06 07:18:26;;;;;;;5.87;1.43;;;2.50;99.90;;;;;;5069141;28;20197;-82
2021/04/06 07:20:55;;;;;;;3.93;1.27;;;2.40;99.90;;;;;;5073484;28;20208;-83
2021/04/06 07:23:33;;;;;;;8.57;1.73;;;2.40;99.90;;;;;;5076359;28;20291;-80
2021/04/06 07:26:05;;;;;;;5.67;1.50;;;2.40;99.90;;;;;;5073063;28;20281;-82
2021/04/06 07:28:32;;;;;;;8.67;1.50;;;2.40;99.90;;;;;;5072640;28;20256;-84
2021/04/06 07:31:02;;;;;;;8.70;2.93;;;2.50;99.90;;;;;;5074793;28;20212;-84
2021/04/06 07:33:31;;;;;;;11.13;3.33;;;2.60;99.90;;;;;;5076597;28;20195;-84
2021/04/06 07:36:04;;;;;;;8.87;2.63;;;2.60;99.90;;;;;;5076003;28;20541;-83
2021/04/06 07:38:33;;;;;;;9.67;2.30;;;2.70;99.90;;;;;;5074060;28;20201;-85
2021/04/06 07:41:00;;;;;;;9.47;1.63;;;2.80;99.90;;;;;;5074905;28;20643;-84
2021/04/06 07:43:28;;;;;;;6.83;1.30;;;2.80;99.90;;;;;;5076284;28;20202;-83
2021/04/06 07:45:54;;;;;;;11.87;2.00;;;2.90;99.90;;;;;;5073550;28;20211;-84
2021/04/06 07:48:42;;;;;;;8.63;0.97;;;3.20;99.90;;;;;;5065518;28;20200;-80
2021/04/06 07:51:17;;;;;;;4.90;1.30;;;3.30;99.90;;;;;;5075782;28;20204;-82
2021/04/06 07:54:01;;;;;;;3.40;1.13;;;3.10;99.90;;;;;;5072364;28;20571;-83
2021/04/06 07:56:53;;;;;;;8.27;1.80;;;2.80;99.90;;;;;;5075223;28;20200;-82
2021/04/06 07:59:52;;;;;;;10.47;3.67;;;2.70;99.90;;;;;;5057917;28;20291;-83
2021/04/06 08:02:28;;;;;;;5.50;2.30;;;3.00;99.90;;;;;;5064656;28;20204;-81
2021/04/06 08:04:57;;;;;;;5.13;2.13;;;3.30;99.90;;;;;;5065418;28;20311;-83
2021/04/06 08:07:27;;;;;;;9.10;2.00;;;3.30;99.90;;;;;;5073117;28;20207;-82
2021/04/06 08:09:54;;;;;;;10.07;2.00;;;3.70;99.90;;;;;;5069328;28;20221;-80
2021/04/06 08:12:21;;;;;;;3.37;0.97;;;3.90;99.90;;;;;;5055729;28;20194;-85
2021/04/06 08:14:49;;;;;;;4.17;1.40;;;3.50;99.90;;;;;;5067827;28;20204;-84
2021/04/06 08:17:48;;;;;;;2.90;0.70;;;2.70;99.90;;;;;;5075897;28;20197;-82
2021/04/06 08:20:38;;;;;;;1.67;0.47;;;2.20;99.90;;;;;;5060072;28;20191;-81
2021/04/06 08:23:06;;;;;;;2.73;0.60;;;1.70;99.90;;;;;;5060106;28;20931;-85
2021/04/06 08:25:54;;;;;;;2.10;0.67;;;1.60;99.90;;;;;;5070637;28;20307;-84
2021/04/06 08:28:38;;;;;;;4.27;0.60;;;1.70;99.90;;;;;;5082268;28;20286;-83
2021/04/06 08:31:30;;;;;;;4.40;0.93;;;1.90;99.90;;;;;;5073883;28;20196;-84
2021/04/06 08:34:28;;;;;;;3.40;0.70;;;2.10;99.90;;;;;;5068417;28;20590;-84
2021/04/06 08:37:17;;;;;;;2.20;0.60;;;2.40;99.90;;;;;;4994928;28;20294;-83
2021/04/06 08:39:45;;;;;;;3.63;1.07;;;2.80;99.90;;;;;;5066624;28;20205;-83
2021/04/06 08:42:16;;;;;;;3.47;0.87;;;3.20;99.90;;;;;;5066682;28;20227;-82
2021/04/06 08:44:48;;;;;;;4.83;0.90;;;3.70;99.90;;;;;;5073291;28;20205;-82
2021/04/06 08:47:40;;;;;;;6.07;0.93;;;4.10;99.90;;;;;;5064734;28;20292;-82
2021/04/06 08:50:08;;;;;;;4.53;1.03;;;4.20;99.90;;;;;;5070862;28;20289;-82
2021/04/06 08:52:36;;;;;;;5.03;1.30;;;4.10;99.90;;;;;;5060806;28;20220;-81
2021/04/06 08:55:10;;;;;;;4.13;1.00;;;4.20;99.90;;;;;;5065254;28;20206;-78
2021/04/06 08:57:36;;;;;;;5.67;1.50;;;5.20;99.90;;;;;;5064934;28;20285;-79
2021/04/06 09:00:14;;;;;;;5.23;1.20;;;6.90;99.90;;;;;;5066618;28;20665;-78
2021/04/06 09:02:42;;;;;;;6.70;1.73;;;7.40;99.90;;;;;;5069141;28;20243;-78
2021/04/06 09:05:10;;;;;;;6.40;2.00;;;6.90;99.90;;;;;;5073788;28;20255;-79
2021/04/06 09:07:39;;;;;;;7.97;2.00;;;6.50;99.90;;;;;;5085108;28;20277;-79
2021/04/06 09:10:09;;;;;;;6.70;1.77;;;6.50;99.90;;;;;;5072953;28;20195;-80
2021/04/06 09:12:37;;;;;;;6.70;1.90;;;6.90;99.90;;;;;;5058035;28;20203;-80
2021/04/06 09:15:06;;;;;;;6.97;2.57;;;7.80;99.90;;;;;;5063610;28;20223;-80
2021/04/06 09:17:34;;;;;;;11.00;1.67;;;8.90;99.90;;;;;;5071966;28;20193;-79
2021/04/06 09:20:06;;;;;;;6.07;1.73;;;10.00;99.90;;;;;;5073271;28;20230;-80
2021/04/06 09:22:33;;;;;;;7.57;2.13;;;10.70;99.90;;;;;;5070400;28;20203;-80
2021/04/06 09:25:14;;;;;;;7.17;2.03;;;11.50;99.90;;;;;;5069420;28;20219;-79
2021/04/06 09:27:48;;;;;;;8.57;2.30;;;11.40;99.90;;;;;;5060653;28;20674;-79
2021/04/06 09:30:16;;;;;;;6.70;1.93;;;11.30;99.90;;;;;;5064922;28;20207;-79
2021/04/06 09:32:43;;;;;;;5.70;1.70;;;11.90;99.90;;;;;;5068721;28;20413;-79
2021/04/06 09:35:15;;;;;;;11.33;1.53;;;11.50;99.90;;;;;;5055840;28;20733;-78
2021/04/06 09:37:42;;;;;;;7.80;1.90;;;11.40;99.90;;;;;;5073765;28;20199;-79
2021/04/06 09:40:11;;;;;;;10.60;2.03;;;12.50;99.90;;;;;;5059207;28;20205;-79
2021/04/06 09:42:38;;;;;;;9.37;2.57;;;12.80;99.90;;;;;;5043957;28;20210;-82
2021/04/06 09:45:06;;;;;;;7.33;1.50;;;13.80;99.90;;;;;;5074397;28;20224;-78
2021/04/06 09:47:36;;;;;;;9.87;1.80;;;13.80;99.90;;;;;;5071624;28;20212;-79
2021/04/06 09:50:04;;;;;;;5.77;1.70;;;12.40;99.90;;;;;;5073045;28;20243;-78
2021/04/06 09:52:30;;;;;;;3.57;0.93;;;9.50;99.90;;;;;;5067604;28;20285;-79
2021/04/06 09:54:59;;;;;;;7.07;0.50;;;6.60;99.90;;;;;;5072229;28;20202;-79
2021/04/06 09:57:32;;;;;;;3.67;0.50;;;4.10;99.90;;;;;;5064609;28;20296;-81
2021/04/06 09:59:59;;;;;;;2.60;0.50;;;2.90;99.90;;;;;;5067353;28;20208;-80
2021/04/06 10:02:28;;;;;;;3.70;1.00;;;2.40;99.90;;;;;;5062365;28;20223;-80
2021/04/06 10:04:55;;;;;;;2.43;0.70;;;2.00;99.90;;;;;;5060672;28;20694;-87
2021/04/06 10:07:23;;;;;;;1.87;0.57;;;1.70;99.90;;;;;;5061651;28;20240;-82
2021/04/06 10:09:52;;;;;;;6.83;0.90;;;1.50;99.90;;;;;;5069637;28;20191;-82
2021/04/06 10:12:20;;;;;;;4.20;1.20;;;1.40;99.90;;;;;;5066291;28;20214;-82
2021/04/06 10:14:49;;;;;;;4.97;1.27;;;1.50;99.90;;;;;;5063906;28;20191;-82
2021/04/06 10:17:17;;;;;;;11.53;1.27;;;1.40;99.90;;;;;;5060372;28;20196;-82
2021/04/06 10:19:54;;;;;;;7.17;1.33;;;1.30;99.90;;;;;;5067079;28;20192;-82
2021/04/06 10:22:22;;;;;;;6.50;0.90;;;1.40;99.90;;;;;;5073400;28;20240;-82
2021/04/06 10:24:56;;;;;;;11.00;1.40;;;1.40;99.90;;;;;;5061205;28;20733;-83
2021/04/06 10:27:26;;;;;;;7.73;1.67;;;1.50;99.90;;;;;;5070037;28;20227;-81
2021/04/06 10:29:55;;;;;;;14.57;1.80;;;1.60;99.90;;;;;;5069268;28;20199;-82
2021/04/06 10:32:30;;;;;;;7.63;1.90;;;1.60;99.90;;;;;;5075775;28;20672;-83
2021/04/06 10:35:01;;;;;;;6.77;1.90;;;1.90;99.90;;;;;;5063949;28;20287;-81
2021/04/06 10:37:39;;;;;;;18.57;2.27;;;2.60;99.90;;;;;;5067181;28;20279;-82
2021/04/06 10:40:25;;;;;;;7.00;2.13;;;3.40;99.90;;;;;;5065254;28;20201;-82
2021/04/06 10:42:54;;;;;;;6.50;1.53;;;4.10;99.90;;;;;;5064420;28;20187;-81
2021/04/06 10:45:23;;;;;;;4.43;1.40;;;4.90;99.90;;;;;;5070498;28;20235;-79
2021/04/06 10:47:51;;;;;;;4.27;1.40;;;5.50;99.90;;;;;;5065879;28;20678;-80
2021/04/06 10:50:18;;;;;;;2.20;0.93;;;5.30;99.90;;;;;;5068657;28;20444;-79
2021/04/06 10:52:44;;;;;;;8.90;1.40;;;4.70;99.90;;;;;;5073025;28;20205;-80
2021/04/06 10:55:12;;;;;;;3.17;1.27;;;4.40;99.90;;;;;;5068612;28;20295;-80
2021/04/06 10:57:39;;;;;;;7.03;1.40;;;4.70;99.90;;;;;;5059891;28;20255;-80
2021/04/06 11:00:20;;;;;;;8.53;1.20;;;5.00;99.90;;;;;;5066275;28;20284;-79
2021/04/06 11:02:47;;;;;;;9.90;1.63;;;5.20;99.90;;;;;;5071405;28;20196;-80
2021/04/06 11:05:29;;;;;;;8.23;1.10;;;5.60;99.90;;;;;;5068870;28;20304;-81
2021/04/06 11:07:55;;;;;;;8.10;1.60;;;5.60;99.90;;;;;;5058044;28;20189;-79
2021/04/06 11:10:24;;;;;;;3.93;1.50;;;5.50;99.90;;;;;;5061353;28;20208;-79
2021/04/06 11:12:50;;;;;;;3.50;1.27;;;6.20;99.90;;;;;;5064121;28;20194;-79
2021/04/06 11:15:17;;;;;;;8.30;1.50;;;6.90;99.90;;;;;;5057065;28;20293;-79
2021/04/06 11:17:45;;;;;;;4.57;1.43;;;7.50;99.90;;;;;;5052899;28;20596;-79
2021/04/06 11:20:14;;;;;;;4.73;1.20;;;8.00;99.90;;;;;;5064305;28;20199;-80
2021/04/06 11:22:40;;;;;;;6.03;1.87;;;8.10;99.90;;;;;;5058948;28;20297;-80
2021/04/06 11:25:08;;;;;;;5.57;1.67;;;8.00;99.90;;;;;;5068973;28;20220;-79
2021/04/06 11:27:34;;;;;;;5.93;2.00;;;7.90;99.90;;;;;;5055949;28;20204;-79
2021/04/06 11:30:01;;;;;;;4.47;1.37;;;7.40;99.90;;;;;;5068095;28;20193;-78
2021/04/06 11:32:27;;;;;;;7.97;1.60;;;6.40;99.90;;;;;;5068826;28;20213;-78
2021/04/06 11:34:53;;;;;;;7.17;1.83;;;5.50;99.90;;;;;;5071947;28;20300;-79
2021/04/06 11:37:21;;;;;;;4.93;1.50;;;5.10;99.90;;;;;;5068857;28;20211;-78
2021/04/06 11:39:48;;;;;;;4.90;1.17;;;4.20;99.90;;;;;;5058078;28;20292;-80
2021/04/06 11:42:17;;;;;;;5.27;1.30;;;3.50;99.90;;;;;;5068511;28;20280;-80
2021/04/06 11:44:44;;;;;;;5.23;1.00;;;3.30;99.90;;;;;;5063398;28;20198;-80
2021/04/06 11:47:11;;;;;;;3.73;1.03;;;2.80;99.90;;;;;;5066329;28;20284;-79
2021/04/06 11:49:38;;;;;;;3.90;1.27;;;3.00;99.90;;;;;;5072081;28;20220;-80
2021/04/06 11:52:04;;;;;;;3.63;0.83;;;3.30;99.90;;;;;;5056490;28;20275;-79
2021/04/06 11:54:32;;;;;;;5.63;1.10;;;3.90;99.90;;;;;;5066244;28;20620;-84
2021/04/06 11:56:58;;;;;;;5.37;0.93;;;4.30;99.90;;;;;;5064861;28;20235;-86
2021/04/06 11:59:25;;;;;;;4.83;0.83;;;5.10;99.90;;;;;;5062536;28;20214;-84
2021/04/06 12:01:51;;;;;;;4.30;0.80;;;5.60;99.90;;;;;;5065378;28;20294;-82
2021/04/06 12:04:18;;;;;;;3.83;1.17;;;5.80;99.90;;;;;;5069306;28;20193;-84
2021/04/06 12:06:44;;;;;;;4.93;1.17;;;6.10;99.90;;;;;;5067061;28;20221;-85
2021/04/06 12:09:12;;;;;;;6.53;1.20;;;6.00;99.90;;;;;;5073557;28;20276;-82
2021/04/06 12:11:39;;;;;;;3.83;1.30;;;5.20;99.90;;;;;;5065536;28;20192;-85
2021/04/06 12:14:06;;;;;;;4.37;1.17;;;3.90;99.90;;;;;;5067276;28;20204;-85
2021/04/06 12:16:33;;;;;;;3.47;0.90;;;2.90;99.90;;;;;;5076868;28;20296;-85
2021/04/06 12:18:59;;;;;;;5.03;1.40;;;2.60;99.90;;;;;;5079283;28;20295;-86
2021/04/06 12:21:26;;;;;;;5.67;1.40;;;2.20;99.90;;;;;;5063413;28;20288;-85
2021/04/06 12:23:53;;;;;;;6.60;1.50;;;2.30;99.90;;;;;;5076624;28;20281;-83
2021/04/06 12:26:19;;;;;;;5.20;1.80;;;2.40;99.90;;;;;;5076417;28;20267;-84
2021/04/06 12:28:48;;;;;;;4.73;1.50;;;2.90;99.90;;;;;;5076427;28;20219;-85
2021/04/06 12:31:14;;;;;;;3.13;1.60;;;3.60;99.90;;;;;;5072885;28;20722;-86
2021/04/06 12:33:43;;;;;;;7.27;1.70;;;4.10;99.90;;;;;;5078258;28;20211;-85
2021/04/06 12:36:10;;;;;;;4.70;1.33;;;4.40;99.90;;;;;;5079911;28;20691;-85
2021/04/06 12:38:37;;;;;;;7.87;1.77;;;4.30;99.90;;;;;;5074290;28;20295;-84
2021/04/06 12:41:03;;;;;;;7.60;1.40;;;4.30;99.90;;;;;;5075414;28;20658;-85
2021/04/06 12:43:30;;;;;;;7.53;2.00;;;4.10;99.90;;;;;;5075202;28;20330;-84
2021/04/06 12:45:58;;;;;;;4.33;1.53;;;4.20;99.90;;;;;;5074245;28;20227;-84
2021/04/06 12:48:24;;;;;;;4.20;1.30;;;4.40;99.90;;;;;;5070984;28;20202;-84
2021/04/06 12:50:52;;;;;;;8.73;1.60;;;4.70;99.90;;;;;;5074652;28;20204;-84
2021/04/06 12:53:18;;;;;;;3.60;1.27;;;4.80;99.90;;;;;;5074759;28;20297;-86
2021/04/06 12:55:45;;;;;;;3.90;1.30;;;4.90;99.90;;;;;;5075298;28;20202;-85
2021/04/06 12:58:11;;;;;;;6.70;1.53;;;5.50;99.90;;;;;;5075036;28;20198;-85
2021/04/06 13:00:38;;;;;;;6.50;1.43;;;5.60;99.90;;;;;;5074804;28;20197;-86
2021/04/06 13:03:06;;;;;;;5.63;1.43;;;5.30;99.90;;;;;;5073412;28;20598;-85
2021/04/06 13:05:32;;;;;;;5.70;1.33;;;4.70;99.90;;;;;;5074456;28;20229;-85
2021/04/06 13:07:59;;;;;;;6.03;1.90;;;3.90;99.90;;;;;;5073209;28;20742;-86